Time;durP1;ratioP1;P1;durP2;ratioP2;P2;SDS_P1;SDS_P2;PMS_P1;PMS_P2;Temp;Humidity;BMP_temperature;BMP_pressure;BME280_temperature;BME280_humidity;BME280_pressure;Samples;Min_cycle;Max_cycle;Signal;HPM_P1;HPM_P2
2023/03/10 00:01:22;;;;;;;;;;;;;;;10.11;65.60;100580.38;1918681;74;21017;-46
2023/03/10 00:03:51;;;;;;;5.17;2.10;;;;;;;10.13;65.47;100583.34;1946127;74;20124;-45
2023/03/10 00:06:22;;;;;;;5.70;2.60;;;;;;;10.13;65.55;100579.39;1946135;74;21086;-45
2023/03/10 00:08:51;;;;;;;4.45;2.55;;;;;;;10.16;65.64;100583.66;1945917;74;21103;-47
2023/03/10 00:11:20;;;;;;;2.47;1.50;;;;;;;10.16;65.78;100576.65;1932982;74;21524;-45
2023/03/10 00:13:48;;;;;;;4.03;2.17;;;;;;;10.20;65.90;100576.06;1893643;76;21046;-46
2023/03/10 00:16:28;;;;;;;5.60;2.10;;;;;;;10.22;66.08;100578.17;1893741;76;21082;-45
2023/03/10 00:18:58;;;;;;;3.17;1.62;;;;;;;10.23;65.79;100575.92;1893888;76;21121;-45
2023/03/10 00:21:29;;;;;;;7.22;2.87;;;;;;;10.23;65.84;100570.66;1897149;74;21021;-45
2023/03/10 00:23:58;;;;;;;2.62;1.47;;;;;;;10.26;66.12;100563.97;1893583;76;21070;-44
2023/03/10 00:26:28;;;;;;;6.60;1.92;;;;;;;10.28;66.21;100566.08;1893679;76;21603;-45
2023/03/10 00:28:57;;;;;;;8.18;2.20;;;;;;;10.31;66.26;100564.67;1893724;76;21074;-45
2023/03/10 00:31:27;;;;;;;4.42;2.02;;;;;;;10.34;66.30;100567.16;1893622;76;21019;-44
2023/03/10 00:33:57;;;;;;;4.75;2.10;;;;;;;10.31;66.09;100563.80;1897041;74;21018;-54
2023/03/10 00:36:29;;;;;;;3.15;2.15;;;;;;;10.25;65.97;100564.88;1893758;76;21494;-53
2023/03/10 00:39:04;;;;;;;2.05;1.37;;;;;;;10.23;66.40;100558.82;1893365;75;21090;-52
2023/03/10 00:41:42;;;;;;;3.65;2.08;;;;;;;10.23;66.45;100558.82;1929564;74;21017;-51
2023/03/10 00:44:08;;;;;;;4.30;1.95;;;;;;;10.27;66.56;100562.19;1940842;74;21068;-51
2023/03/10 00:46:38;;;;;;;3.80;1.98;;;;;;;10.23;66.40;100561.45;1950602;73;21523;-52
2023/03/10 00:49:08;;;;;;;5.78;2.22;;;;;;;10.24;66.75;100561.86;1956112;73;21119;-52
2023/03/10 00:51:37;;;;;;;2.62;1.77;;;;;;;10.23;66.61;100565.40;1932197;73;21144;-50
2023/03/10 00:54:06;;;;;;;6.97;2.00;;;;;;;10.20;66.63;100563.76;1915004;75;21108;-49
2023/03/10 00:56:34;;;;;;;3.08;1.77;;;;;;;10.19;66.67;100560.72;1914890;75;21039;-51
2023/03/10 00:59:03;;;;;;;7.58;2.40;;;;;;;10.18;66.58;100560.34;1915101;75;21027;-51
2023/03/10 01:01:35;;;;;;;4.45;1.85;;;;;;;10.13;66.51;100559.66;1930196;73;20993;-51
2023/03/10 01:04:13;;;;;;;2.55;1.62;;;;;;;10.14;66.92;100557.88;1955532;73;21098;-49
2023/03/10 01:06:44;;;;;;;3.85;2.00;;;;;;;10.13;66.96;100549.60;1955895;73;21001;-52
2023/03/10 01:09:12;;;;;;;4.20;2.47;;;;;;;10.14;66.95;100557.88;1955935;73;21029;-51
2023/03/10 01:11:41;;;;;;;1.82;1.35;;;;;;;10.19;67.28;100559.87;1953323;72;21016;-50
2023/03/10 01:14:12;;;;;;;2.35;1.50;;;;;;;10.27;67.09;100555.61;1955956;73;21094;-51
2023/03/10 01:16:41;;;;;;;6.97;1.92;;;;;;;10.39;66.80;100559.09;1956014;73;21036;-52
2023/03/10 01:19:10;;;;;;;6.42;2.05;;;;;;;10.41;66.62;100568.63;1955904;73;21036;-52
2023/03/10 01:21:39;;;;;;;4.58;2.12;;;;;;;10.40;66.41;100557.72;1956022;73;21549;-51
2023/03/10 01:24:11;;;;;;;5.95;2.12;;;;;;;10.35;66.17;100563.63;1918321;73;21039;-50
2023/03/10 01:26:39;;;;;;;5.33;2.20;;;;;;;10.23;66.15;100562.30;1914927;75;21477;-50
2023/03/10 01:29:08;;;;;;;5.78;1.87;;;;;;;10.13;66.26;100557.49;1915080;75;20999;-50
2023/03/10 01:31:37;;;;;;;9.80;1.95;;;;;;;10.11;67.02;100565.91;1915009;75;21101;-46
2023/03/10 01:34:05;;;;;;;3.17;1.87;;;;;;;10.24;66.81;100564.49;1917617;73;21015;-48
2023/03/10 01:36:34;;;;;;;6.03;1.87;;;;;;;10.25;66.67;100563.55;1915040;75;21082;-46
2023/03/10 01:39:02;;;;;;;3.02;1.30;;;;;;;10.21;66.52;100568.55;1914944;75;21009;-47
2023/03/10 01:41:31;;;;;;;4.53;1.70;;;;;;;10.20;66.78;100569.02;1915225;73;21030;-46
2023/03/10 01:44:02;;;;;;;5.97;1.62;;;;;;;10.26;66.84;100569.23;1914961;75;21120;-44
2023/03/10 01:46:53;;;;;;;4.85;1.90;;;;;;;10.33;66.88;100575.99;1912916;75;21039;-47
2023/03/10 01:49:33;;;;;;;4.08;1.95;;;;;;;10.39;66.91;100574.89;1892577;75;21495;-47
2023/03/10 01:52:10;;;;;;;2.20;1.62;;;;;;;10.41;67.26;100567.78;1897142;74;21534;-46
2023/03/10 01:54:42;;;;;;;4.65;1.77;;;;;;;10.41;67.24;100568.63;1891056;75;21140;-44
2023/03/10 01:57:13;;;;;;;3.65;1.77;;;;;;;10.38;67.35;100564.83;1892898;75;21043;-45
2023/03/10 01:59:43;;;;;;;4.65;2.30;;;;;;;10.38;67.75;100560.88;1893705;76;21019;-45
2023/03/10 02:02:12;;;;;;;2.37;1.20;;;;;;;10.38;67.77;100570.09;1897105;74;20994;-47
2023/03/10 02:04:48;;;;;;;5.80;1.98;;;;;;;10.37;67.76;100565.73;1893535;76;21046;-47
2023/03/10 02:07:22;;;;;;;2.45;1.60;;;;;;;10.35;67.61;100566.26;1893723;75;21082;-47
2023/03/10 02:09:52;;;;;;;4.35;2.12;;;;;;;10.30;67.57;100555.02;1893586;75;21187;-48
2023/03/10 02:12:21;;;;;;;3.37;2.10;;;;;;;10.27;67.59;100559.55;1914583;74;21061;-46
2023/03/10 02:14:51;;;;;;;6.47;1.82;;;;;;;10.20;67.58;100565.55;1945953;74;21106;-47
2023/03/10 02:17:22;;;;;;;7.80;2.80;;;;;;;10.12;67.70;100558.40;1946088;74;21029;-48
2023/03/10 02:20:00;;;;;;;6.80;2.20;;;;;;;10.05;67.98;100567.86;1945883;74;20996;-49
2023/03/10 02:22:31;;;;;;;5.42;2.27;;;;;;;9.98;68.23;100557.18;1932191;74;21137;-52
2023/03/10 02:25:18;;;;;;;3.77;2.10;;;;;;;9.90;68.22;100567.13;1893558;76;21039;-48
2023/03/10 02:27:46;;;;;;;3.33;2.08;;;;;;;9.81;68.22;100557.84;1893123;75;21031;-49
2023/03/10 02:30:22;;;;;;;5.60;2.37;;;;;;;9.73;68.55;100561.21;1893548;76;21117;-52
2023/03/10 02:32:57;;;;;;;5.17;2.05;;;;;;;9.65;68.66;100560.20;1905843;74;21004;-49
2023/03/10 02:35:27;;;;;;;4.55;2.37;;;;;;;9.63;69.11;100551.52;1945951;74;21158;-49
2023/03/10 02:37:58;;;;;;;7.15;2.30;;;;;;;9.65;69.41;100548.83;1945362;74;21144;-50
2023/03/10 02:40:36;;;;;;;5.45;2.30;;;;;;;9.64;69.44;100552.36;1914171;74;21501;-45
2023/03/10 02:43:19;;;;;;;4.78;1.92;;;;;;;9.66;69.62;100557.09;1943658;74;21632;-45
2023/03/10 02:45:50;;;;;;;5.08;2.10;;;;;;;9.64;69.60;100557.16;1945918;74;21060;-45
2023/03/10 02:48:23;;;;;;;4.85;2.12;;;;;;;9.62;69.42;100556.83;1945852;72;21077;-46
2023/03/10 02:50:53;;;;;;;6.12;2.77;;;;;;;9.59;69.75;100564.38;1931596;74;21039;-53
2023/03/10 02:53:25;;;;;;;10.70;2.02;;;;;;;9.57;69.76;100556.13;1893574;76;21124;-55
2023/03/10 02:55:54;;;;;;;3.80;2.27;;;;;;;9.57;69.94;100562.70;1893559;76;21015;-58
2023/03/10 02:58:25;;;;;;;6.37;2.62;;;;;;;9.54;69.71;100558.44;1893688;76;21007;-48
2023/03/10 03:00:54;;;;;;;5.28;2.67;;;;;;;9.52;69.79;100565.52;1899236;74;21015;-48
2023/03/10 03:03:23;;;;;;;5.10;1.77;;;;;;;9.51;69.96;100562.48;1946053;74;21032;-46
2023/03/10 03:05:53;;;;;;;3.83;1.92;;;;;;;9.51;70.04;100566.42;1939897;74;21538;-46
2023/03/10 03:08:22;;;;;;;6.22;2.60;;;;;;;9.54;70.45;100569.41;1938300;72;21416;-48
2023/03/10 03:10:52;;;;;;;4.80;2.17;;;;;;;9.57;70.42;100570.59;1934142;74;21474;-47
2023/03/10 03:13:21;;;;;;;6.03;2.55;;;;;;;9.57;70.59;100566.22;1932772;74;21026;-49
2023/03/10 03:15:51;;;;;;;8.40;2.47;;;;;;;9.59;70.77;100559.56;1934122;74;21103;-48
2023/03/10 03:18:20;;;;;;;5.20;2.92;;;;;;;9.63;70.52;100563.81;1946014;74;21032;-51
2023/03/10 03:20:49;;;;;;;6.83;2.50;;;;;;;9.68;70.32;100564.94;1946127;74;21111;-47
2023/03/10 03:23:18;;;;;;;3.87;1.85;;;;;;;9.76;70.27;100565.52;1913725;74;21063;-46
2023/03/10 03:25:47;;;;;;;4.95;2.02;;;;;;;9.85;70.04;100561.22;1893703;76;21470;-47
2023/03/10 03:28:17;;;;;;;3.80;1.77;;;;;;;9.98;69.78;100571.65;1893589;76;21580;-47
2023/03/10 03:30:47;;;;;;;3.25;2.10;;;;;;;10.05;69.42;100569.61;1893711;76;21133;-51
2023/03/10 03:33:16;;;;;;;3.22;2.30;;;;;;;10.12;69.19;100570.23;1896993;74;21136;-51
2023/03/10 03:35:45;;;;;;;4.72;2.33;;;;;;;10.18;68.83;100568.66;1893575;75;21510;-53
2023/03/10 03:38:16;;;;;;;5.62;2.25;;;;;;;10.21;68.66;100563.29;1893704;75;21034;-50
2023/03/10 03:40:45;;;;;;;4.67;2.37;;;;;;;10.19;68.47;100566.45;1893890;74;21026;-45
2023/03/10 03:43:15;;;;;;;3.95;2.05;;;;;;;10.16;68.40;100574.02;1922637;72;21041;-56
2023/03/10 03:45:44;;;;;;;3.08;1.15;;;;;;;10.13;68.42;100570.65;1911639;74;21111;-47
2023/03/10 03:48:14;;;;;;;18.65;5.12;;;;;;;10.12;68.31;100567.61;1946641;72;21032;-46
2023/03/10 03:50:42;;;;;;;9.65;4.15;;;;;;;10.09;68.26;100572.98;1939498;73;21110;-47
2023/03/10 03:53:13;;;;;;;8.43;3.25;;;;;;;10.02;68.12;100566.66;1907591;74;21498;-47
2023/03/10 03:55:42;;;;;;;5.03;2.72;;;;;;;9.95;68.12;100569.59;1920250;74;21133;-48
2023/03/10 03:58:11;;;;;;;7.40;3.27;;;;;;;9.89;68.21;100572.01;1905284;74;21517;-47
2023/03/10 04:00:39;;;;;;;10.43;5.65;;;;;;;9.86;68.21;100575.59;1906877;74;21160;-46
2023/03/10 04:03:09;;;;;;;12.73;7.35;;;;;;;9.85;68.23;100575.21;1920754;74;21049;-49
2023/03/10 04:05:38;;;;;;;15.53;8.93;;;;;;;9.85;68.24;100574.36;1924911;74;21083;-48
2023/03/10 04:08:07;;;;;;;11.73;4.75;;;;;;;9.93;68.29;100576.22;1908401;73;21015;-49
2023/03/10 04:10:36;;;;;;;4.45;2.50;;;;;;;10.07;68.29;100583.59;1905815;74;21634;-49
2023/03/10 04:13:05;;;;;;;7.90;3.00;;;;;;;10.20;68.21;100578.23;1926112;74;21236;-46
2023/03/10 04:15:33;;;;;;;6.75;3.05;;;;;;;10.36;68.08;100584.22;1913217;72;21023;-47
2023/03/10 04:18:02;;;;;;;13.70;5.83;;;;;;;10.51;67.98;100577.46;1917019;74;21107;-46
2023/03/10 04:20:31;;;;;;;11.12;5.28;;;;;;;10.67;67.77;100585.13;1930616;72;21126;-46
2023/03/10 04:23:00;;;;;;;8.78;4.70;;;;;;;10.78;67.32;100582.89;1983939;72;21075;-47
2023/03/10 04:25:31;;;;;;;8.10;2.83;;;;;;;10.81;66.97;100576.19;1959182;72;21497;-46
2023/03/10 04:28:00;;;;;;;5.25;2.45;;;;;;;10.79;66.67;100578.03;1937910;72;21106;-45
2023/03/10 04:30:30;;;;;;;3.55;2.40;;;;;;;10.79;66.51;100571.45;1948586;73;21108;-45
2023/03/10 04:33:01;;;;;;;7.80;2.98;;;;;;;10.81;66.31;100576.19;1948415;73;21136;-46
2023/03/10 04:35:31;;;;;;;4.62;2.02;;;;;;;10.82;66.22;100579.20;1948492;74;21170;-46
2023/03/10 04:38:00;;;;;;;6.97;3.05;;;;;;;10.90;66.13;100579.33;1964431;72;21066;-47
2023/03/10 04:40:30;;;;;;;6.58;3.65;;;;;;;10.96;66.02;100592.27;1983832;72;21568;-47
2023/03/10 04:42:58;;;;;;;9.18;3.50;;;;;;;11.04;65.77;100592.77;1983870;72;21097;-45
2023/03/10 04:45:27;;;;;;;3.77;2.10;;;;;;;11.05;65.46;100601.09;1982966;72;21055;-49
2023/03/10 04:47:56;;;;;;;5.10;2.33;;;;;;;11.05;65.34;100597.58;1948706;73;21115;-46
2023/03/10 04:50:25;;;;;;;5.47;2.58;;;;;;;11.03;65.21;100608.20;1954362;73;21080;-46
2023/03/10 04:52:55;;;;;;;5.80;2.70;;;;;;;11.02;65.22;100609.11;1955979;73;21118;-46
2023/03/10 04:55:25;;;;;;;6.83;2.42;;;;;;;11.04;65.11;100607.27;1955714;73;21084;-47
2023/03/10 04:57:54;;;;;;;6.25;2.20;;;;;;;11.01;65.06;100604.75;1956020;73;21086;-45
2023/03/10 05:00:23;;;;;;;6.40;2.30;;;;;;;11.01;65.01;100615.29;1955781;73;21138;-49
2023/03/10 05:02:53;;;;;;;3.98;1.90;;;;;;;11.04;64.80;100604.62;1955797;73;21087;-47
2023/03/10 05:05:22;;;;;;;1.80;0.85;;;;;;;11.11;64.54;100602.13;1955787;73;21024;-47
2023/03/10 05:07:50;;;;;;;3.45;1.57;;;;;;;11.20;64.05;100597.77;1966049;72;21062;-46
2023/03/10 05:10:20;;;;;;;7.10;2.17;;;;;;;11.34;62.89;100605.09;1928679;72;21630;-46
2023/03/10 05:12:49;;;;;;;3.95;1.65;;;;;;;11.47;61.98;100608.03;1940570;73;21089;-47
2023/03/10 05:15:17;;;;;;;1.47;1.00;;;;;;;11.55;61.82;100612.95;1960679;73;21169;-48
2023/03/10 05:17:46;;;;;;;2.27;1.60;;;;;;;11.61;61.78;100607.87;1962811;73;21105;-45
2023/03/10 05:20:16;;;;;;;4.70;2.00;;;;;;;11.63;61.85;100615.24;1962784;73;21511;-46
2023/03/10 05:22:45;;;;;;;5.10;1.52;;;;;;;11.65;61.91;100605.00;1962942;73;21032;-46
2023/03/10 05:25:14;;;;;;;10.38;1.80;;;;;;;11.67;61.93;100603.62;1945644;73;20994;-46
2023/03/10 05:27:44;;;;;;;2.08;1.40;;;;;;;11.69;61.99;100601.77;1948506;73;21565;-47
2023/03/10 05:30:14;;;;;;;3.02;1.50;;;;;;;11.71;62.01;100602.55;1955812;73;21092;-46
2023/03/10 05:32:44;;;;;;;3.37;1.47;;;;;;;11.73;62.01;100607.28;1955818;73;21024;-46
2023/03/10 05:35:14;;;;;;;8.98;1.70;;;;;;;11.76;61.99;100611.11;1955836;73;21459;-46
2023/03/10 05:37:44;;;;;;;3.85;1.85;;;;;;;11.82;61.93;100608.65;1946208;73;21089;-48
2023/03/10 05:40:18;;;;;;;6.15;2.17;;;;;;;11.89;61.76;100612.25;1958885;73;21024;-44
2023/03/10 05:42:51;;;;;;;5.12;1.82;;;;;;;11.95;61.54;100610.70;1934091;73;21020;-50
2023/03/10 05:45:20;;;;;;;4.45;2.30;;;;;;;12.05;61.36;100605.83;1957019;73;21125;-48
2023/03/10 05:47:48;;;;;;;4.45;1.62;;;;;;;12.23;61.12;100599.27;1950071;73;21107;-49
2023/03/10 05:50:18;;;;;;;4.20;1.67;;;;;;;12.45;60.65;100606.56;1936226;72;21514;-48
2023/03/10 05:52:47;;;;;;;4.35;1.62;;;;;;;12.53;60.04;100607.50;1934885;74;21503;-48
2023/03/10 05:55:19;;;;;;;4.92;1.55;;;;;;;12.61;58.69;100609.28;1916609;73;21091;-47
2023/03/10 05:57:48;;;;;;;26.27;1.65;;;;;;;13.12;58.91;100615.98;1913611;74;21053;-48
2023/03/10 06:00:18;;;;;;;4.35;1.82;;;;;;;14.08;58.37;100618.39;1915339;74;21507;-49
2023/03/10 06:02:48;;;;;;;6.75;2.00;;;;;;;14.46;54.98;100616.23;1907943;74;21054;-47
2023/03/10 06:05:17;;;;;;;2.45;1.15;;;;;;;14.25;54.55;100618.28;1909965;74;21164;-49
2023/03/10 06:07:45;;;;;;;4.92;1.72;;;;;;;14.07;53.72;100612.70;1918760;74;21035;-49
2023/03/10 06:10:14;;;;;;;5.55;1.50;;;;;;;13.87;53.74;100624.41;1903526;74;21220;-51
2023/03/10 06:12:43;;;;;;;2.02;1.07;;;;;;;13.75;53.55;100623.27;1941976;72;21121;-56
2023/03/10 06:15:12;;;;;;;4.35;1.65;;;;;;;13.67;52.94;100634.75;1980631;72;21079;-47
2023/03/10 06:17:40;;;;;;;4.45;2.08;;;;;;;13.61;52.75;100631.09;1934410;72;21462;-46
2023/03/10 06:20:10;;;;;;;3.62;1.72;;;;;;;13.52;52.34;100637.75;1912116;75;21015;-46
2023/03/10 06:22:38;;;;;;;5.05;1.72;;;;;;;13.38;51.09;100635.81;1912196;75;21112;-47
2023/03/10 06:25:09;;;;;;;2.80;1.40;;;;;;;13.19;49.79;100648.27;1912012;75;21576;-46
2023/03/10 06:27:37;;;;;;;5.58;1.92;;;;;;;13.04;50.39;100648.11;1912161;75;21039;-48
2023/03/10 06:30:07;;;;;;;6.60;1.50;;;;;;;12.97;50.75;100651.98;1924791;74;21019;-51
2023/03/10 06:32:36;;;;;;;2.17;1.30;;;;;;;12.92;51.04;100651.36;1918121;75;21031;-45
2023/03/10 06:35:05;;;;;;;3.00;1.52;;;;;;;12.89;51.26;100655.47;1918230;75;20999;-46
2023/03/10 06:37:33;;;;;;;3.08;1.65;;;;;;;12.89;51.31;100654.14;1929766;74;21015;-45
2023/03/10 06:40:03;;;;;;;2.85;1.72;;;;;;;12.88;51.03;100661.22;1944356;74;21034;-51
2023/03/10 06:42:32;;;;;;;4.60;1.70;;;;;;;12.92;50.99;100656.64;1945921;73;21506;-47
2023/03/10 06:45:01;;;;;;;3.10;2.00;;;;;;;12.91;50.37;100662.84;1949278;73;21558;-49
2023/03/10 06:47:29;;;;;;;2.80;1.45;;;;;;;12.91;50.60;100674.30;1949340;73;21016;-53
2023/03/10 06:49:59;;;;;;;3.37;1.57;;;;;;;12.90;50.10;100684.94;1951471;71;21012;-50
2023/03/10 06:52:28;;;;;;;4.03;1.75;;;;;;;12.88;50.14;100672.27;1952227;73;21039;-48
2023/03/10 06:54:56;;;;;;;8.23;2.17;;;;;;;12.90;50.46;100666.44;1952341;73;21105;-52
2023/03/10 06:57:25;;;;;;;3.85;1.40;;;;;;;12.92;50.59;100681.27;1951931;73;21133;-48
2023/03/10 06:59:54;;;;;;;3.87;2.55;;;;;;;12.92;50.50;100681.27;1943341;73;21036;-45
2023/03/10 07:02:23;;;;;;;4.80;1.67;;;;;;;12.91;50.60;100687.51;1946063;74;21472;-45
2023/03/10 07:04:52;;;;;;;4.75;2.10;;;;;;;12.91;50.78;100689.27;1949428;73;21027;-50
2023/03/10 07:07:20;;;;;;;1.90;1.40;;;;;;;12.89;50.94;100679.25;1919835;74;21185;-48
2023/03/10 07:09:49;;;;;;;3.17;1.70;;;;;;;12.85;50.82;100676.38;1938081;74;21070;-48
2023/03/10 07:12:17;;;;;;;4.33;1.85;;;;;;;12.81;50.62;100672.18;1893643;76;21039;-52
2023/03/10 07:14:46;;;;;;;4.37;1.77;;;;;;;12.77;50.48;100672.80;1893610;76;21048;-48
2023/03/10 07:17:15;;;;;;;3.20;1.70;;;;;;;12.78;50.11;100672.32;1893764;76;21023;-49
2023/03/10 07:19:43;;;;;;;3.42;1.20;;;;;;;12.77;49.74;100664.02;1893633;76;21128;-49
2023/03/10 07:22:12;;;;;;;5.70;2.00;;;;;;;12.81;50.13;100671.70;1945773;74;21076;-48
2023/03/10 07:24:41;;;;;;;7.42;1.27;;;;;;;12.82;49.89;100671.23;1929884;72;21040;-46
2023/03/10 07:27:09;;;;;;;3.77;1.57;;;;;;;12.82;49.94;100682.67;1901013;74;21120;-47
2023/03/10 07:29:38;;;;;;;3.08;1.67;;;;;;;12.85;49.63;100679.02;1935874;74;21593;-47
2023/03/10 07:32:07;;;;;;;3.08;1.57;;;;;;;12.83;49.68;100674.27;1945999;74;21102;-48
2023/03/10 07:34:35;;;;;;;4.20;1.32;;;;;;;12.85;49.71;100685.63;1946034;74;21033;-47
2023/03/10 07:37:04;;;;;;;4.28;1.50;;;;;;;12.81;49.58;100665.58;1930012;74;21159;-45
2023/03/10 07:39:32;;;;;;;2.75;1.30;;;;;;;12.76;49.83;100682.95;1894736;74;21096;-46
2023/03/10 07:42:01;;;;;;;6.03;2.90;;;;;;;12.70;50.09;100684.12;1893883;74;20979;-48
2023/03/10 07:44:31;;;;;;;18.48;4.97;;;;;;;12.68;50.48;100692.59;1893534;75;21087;-47
2023/03/10 07:47:00;;;;;;;6.20;3.22;;;;;;;12.64;50.90;100688.86;1897297;74;21099;-49
2023/03/10 07:49:29;;;;;;;2.65;1.82;;;;;;;12.58;51.37;100682.09;1893474;76;21104;-46
2023/03/10 07:51:57;;;;;;;5.50;2.02;;;;;;;12.49;51.92;100701.02;1904780;75;21047;-46
2023/03/10 07:54:26;;;;;;;3.33;2.17;;;;;;;12.44;52.22;100688.02;1924138;72;21019;-46
2023/03/10 07:56:54;;;;;;;3.80;1.80;;;;;;;12.45;52.68;100688.86;1937019;73;21114;-43
2023/03/10 07:59:23;;;;;;;3.90;1.82;;;;;;;12.45;52.99;100683.58;1955877;73;21091;-44
2023/03/10 08:01:52;;;;;;;3.75;2.02;;;;;;;12.44;53.37;100689.81;1927223;73;21047;-45
2023/03/10 08:04:20;;;;;;;4.08;1.90;;;;;;;12.42;54.03;100680.64;1921985;75;21020;-45
2023/03/10 08:06:49;;;;;;;7.05;2.17;;;;;;;12.51;53.97;100666.99;1928924;73;21470;-46
2023/03/10 08:09:18;;;;;;;3.30;1.55;;;;;;;12.70;53.95;100684.12;1934013;73;21027;-48
2023/03/10 08:11:47;;;;;;;6.35;2.12;;;;;;;12.83;53.89;100670.31;1951113;73;21890;-46
2023/03/10 08:14:18;;;;;;;3.62;1.82;;;;;;;12.86;54.19;100649.03;1957429;73;21089;-46
2023/03/10 08:16:45;;;;;;;4.53;2.27;;;;;;;12.80;54.69;100674.41;1960827;73;21172;-46
2023/03/10 08:19:14;;;;;;;2.72;1.62;;;;;;;12.80;55.02;100666.48;1960965;73;21024;-45
2023/03/10 08:21:43;;;;;;;4.65;1.87;;;;;;;12.85;55.73;100669.77;1960934;73;21034;-46
2023/03/10 08:24:11;;;;;;;3.80;1.75;;;;;;;12.84;55.74;100666.75;1960869;73;20999;-46
2023/03/10 08:26:40;;;;;;;5.67;2.70;;;;;;;12.84;56.31;100668.92;1960815;73;21077;-47
2023/03/10 08:29:09;;;;;;;5.28;2.20;;;;;;;12.86;56.45;100671.49;1961585;73;21537;-47
2023/03/10 08:31:37;;;;;;;4.85;1.77;;;;;;;12.95;56.26;100672.36;1962777;73;21032;-50
2023/03/10 08:34:06;;;;;;;3.02;1.57;;;;;;;13.00;56.28;100675.59;1962891;73;21044;-44
2023/03/10 08:36:35;;;;;;;4.53;2.35;;;;;;;13.00;56.43;100675.59;1961205;73;21106;-45
2023/03/10 08:39:04;;;;;;;3.10;0.85;;;;;;;13.01;56.45;100677.80;1914553;75;21037;-43
2023/03/10 08:41:36;;;;;;;4.42;2.02;;;;;;;13.00;56.42;100682.20;1916946;73;21638;-46
2023/03/10 08:44:05;;;;;;;2.72;1.55;;;;;;;12.98;56.53;100676.14;1954049;72;21450;-60
2023/03/10 08:46:34;;;;;;;5.30;2.08;;;;;;;12.93;56.45;100676.39;1939871;73;21664;-59
2023/03/10 08:49:03;;;;;;;9.33;2.65;;;;;;;12.90;56.47;100671.72;1954175;73;21539;-57
2023/03/10 08:51:31;;;;;;;6.47;2.08;;;;;;;12.92;56.37;100681.75;1955057;73;21032;-59
2023/03/10 08:54:00;;;;;;;3.80;2.12;;;;;;;12.90;56.32;100680.50;1944557;73;21045;-57
2023/03/10 08:56:29;;;;;;;7.03;2.35;;;;;;;12.92;56.17;100698.92;1928640;73;21593;-58
2023/03/10 08:58:59;;;;;;;4.58;2.45;;;;;;;12.89;56.17;100700.39;1943813;72;21228;-61
2023/03/10 09:01:33;;;;;;;4.80;2.20;;;;;;;12.85;55.98;100688.27;1939302;72;21084;-61
2023/03/10 09:04:04;;;;;;;3.87;2.33;;;;;;;12.88;55.93;100692.94;1940852;72;21115;-65
2023/03/10 09:06:34;;;;;;;6.75;2.58;;;;;;;12.93;55.78;100684.80;1944678;73;21108;-62
2023/03/10 09:09:04;;;;;;;2.65;2.10;;;;;;;12.97;55.64;100692.95;1932714;73;21153;-64
2023/03/10 09:11:35;;;;;;;3.17;2.00;;;;;;;13.00;55.46;100688.81;1945076;73;21231;-60
2023/03/10 09:14:05;;;;;;;5.72;2.55;;;;;;;12.93;54.88;100680.83;1944912;73;21139;-45
2023/03/10 09:16:34;;;;;;;7.85;2.50;;;;;;;12.87;54.94;100678.47;1926604;72;21074;-53
2023/03/10 09:19:02;;;;;;;5.83;2.10;;;;;;;12.82;54.96;100668.59;1945454;73;21111;-56
2023/03/10 09:21:32;;;;;;;6.28;2.25;;;;;;;12.79;55.09;100671.41;1930365;73;21135;-58
2023/03/10 09:24:02;;;;;;;4.25;2.08;;;;;;;12.77;55.24;100657.41;1937816;73;21831;-57
2023/03/10 09:26:31;;;;;;;4.67;2.50;;;;;;;12.81;55.39;100673.50;1938692;72;21499;-53
2023/03/10 09:29:00;;;;;;;2.70;1.22;;;;;;;12.84;55.41;100668.92;1944177;73;21094;-57
2023/03/10 09:31:31;;;;;;;5.10;2.00;;;;;;;12.91;55.45;100662.84;1940981;72;21220;-56
2023/03/10 09:34:00;;;;;;;4.70;2.52;;;;;;;12.91;55.40;100659.76;1951145;72;21201;-52
2023/03/10 09:36:29;;;;;;;5.60;2.70;;;;;;;12.90;55.48;100661.16;1951634;72;21076;-45
2023/03/10 09:38:59;;;;;;;3.33;1.70;;;;;;;12.93;55.65;100662.33;1953755;73;21615;-55
2023/03/10 09:41:43;;;;;;;7.55;2.85;;;;;;;12.93;55.81;100654.41;1951162;72;21516;-49
2023/03/10 09:44:17;;;;;;;5.37;1.95;;;;;;;12.97;56.01;100655.95;1947324;73;21031;-46
2023/03/10 09:47:03;;;;;;;3.15;1.80;;;;;;;13.00;56.08;100657.09;1964218;72;21015;-45
2023/03/10 09:49:35;;;;;;;4.78;2.20;;;;;;;13.05;56.13;100659.52;1991265;72;20991;-47
2023/03/10 09:52:35;;;;;;;6.90;2.05;;;;;;;13.10;56.07;100666.28;1979190;72;21081;-47
2023/03/10 09:55:25;;;;;;;6.03;2.62;;;;;;;13.16;56.10;100674.84;1948244;73;21071;-48
2023/03/10 09:57:56;;;;;;;5.15;2.20;;;;;;;13.18;56.32;100673.82;1948356;73;21539;-46
2023/03/10 10:00:30;;;;;;;2.20;1.40;;;;;;;13.23;56.27;100666.52;1990869;72;21035;-47
2023/03/10 10:03:04;;;;;;;9.30;1.98;;;;;;;13.42;56.13;100669.09;1991078;72;21036;-46
2023/03/10 10:05:36;;;;;;;6.00;2.17;;;;;;;13.64;55.88;100657.39;1988337;72;21019;-47
2023/03/10 10:08:08;;;;;;;4.13;2.57;;;;;;;13.81;55.61;100663.94;1991490;72;21023;-48
2023/03/10 10:10:37;;;;;;;4.80;2.00;;;;;;;13.89;55.46;100656.94;1989922;72;21137;-46
2023/03/10 10:13:14;;;;;;;4.25;1.82;;;;;;;13.98;55.35;100647.62;1991353;72;21019;-48
2023/03/10 10:15:46;;;;;;;4.05;2.00;;;;;;;14.05;55.23;100646.34;1961429;72;21028;-48
2023/03/10 10:18:17;;;;;;;3.65;1.75;;;;;;;14.03;55.30;100652.20;1946736;73;21146;-46
2023/03/10 10:20:57;;;;;;;8.13;2.45;;;;;;;13.95;55.47;100638.06;1948426;73;21445;-45
2023/03/10 10:23:33;;;;;;;7.45;2.40;;;;;;;13.90;55.62;100647.56;1948036;73;21601;-46
2023/03/10 10:26:10;;;;;;;10.82;2.70;;;;;;;13.84;55.97;100643.94;1937248;73;21147;-47
2023/03/10 10:28:50;;;;;;;5.60;2.02;;;;;;;13.87;55.99;100641.14;1948927;73;21537;-43
2023/03/10 10:31:22;;;;;;;3.37;2.10;;;;;;;13.86;56.06;100636.77;1973028;72;21101;-44
2023/03/10 10:34:02;;;;;;;5.37;2.33;;;;;;;13.90;56.17;100631.69;1991348;72;21039;-46
2023/03/10 10:36:37;;;;;;;6.30;2.80;;;;;;;13.93;56.44;100620.57;1922409;72;21554;-46
2023/03/10 10:39:08;;;;;;;4.87;1.75;;;;;;;13.90;56.84;100618.45;1954181;72;21416;-45
2023/03/10 10:41:38;;;;;;;5.53;2.75;;;;;;;13.85;57.10;100620.52;1971323;72;21472;-46
2023/03/10 10:44:09;;;;;;;3.98;2.45;;;;;;;13.80;57.54;100622.55;1975520;72;21102;-43
2023/03/10 10:46:38;;;;;;;7.35;2.95;;;;;;;13.75;58.04;100631.20;1959258;72;21545;-44
2023/03/10 10:49:27;;;;;;;7.90;2.60;;;;;;;13.68;58.10;100621.89;1955701;73;21036;-45
2023/03/10 10:52:05;;;;;;;7.62;1.90;;;;;;;13.61;58.64;100619.18;1955805;73;21009;-45
2023/03/10 10:54:39;;;;;;;6.37;2.92;;;;;;;13.53;59.02;100625.36;1960741;73;21507;-45
2023/03/10 10:57:19;;;;;;;5.60;2.65;;;;;;;13.41;59.66;100626.41;1962013;73;21066;-48
2023/03/10 10:59:48;;;;;;;12.37;3.30;;;;;;;13.32;59.92;100615.83;1939067;73;21070;-46
2023/03/10 11:02:34;;;;;;;6.03;3.12;;;;;;;13.35;59.80;100624.06;1952479;73;21009;-46
2023/03/10 11:05:18;;;;;;;3.50;2.12;;;;;;;13.36;60.12;100629.75;1962223;73;21001;-47
2023/03/10 11:07:49;;;;;;;5.40;2.22;;;;;;;13.28;60.54;100612.09;1958042;72;21435;-46
2023/03/10 11:10:29;;;;;;;5.20;2.50;;;;;;;13.23;60.70;100618.08;1954983;73;21032;-44
2023/03/10 11:13:06;;;;;;;6.30;2.90;;;;;;;13.20;60.75;100615.11;1955471;73;21478;-46
2023/03/10 11:15:41;;;;;;;4.12;1.80;;;;;;;13.13;61.18;100619.87;1953249;73;21031;-46
2023/03/10 11:18:18;;;;;;;7.03;1.92;;;;;;;13.12;61.07;100622.12;1955387;73;21556;-43
2023/03/10 11:20:53;;;;;;;3.33;1.90;;;;;;;13.13;60.99;100605.34;1955790;73;21077;-46
2023/03/10 11:23:36;;;;;;;9.60;2.85;;;;;;;13.13;61.47;100615.03;1955669;73;21026;-47
2023/03/10 11:26:07;;;;;;;4.03;2.40;;;;;;;13.11;61.50;100609.85;1954675;73;21082;-46
2023/03/10 11:28:39;;;;;;;6.62;2.75;;;;;;;13.13;61.74;100629.12;1953651;73;21110;-45
2023/03/10 11:31:17;;;;;;;7.17;2.40;;;;;;;13.18;61.81;100625.39;1958315;73;21057;-45
2023/03/10 11:34:03;;;;;;;11.15;3.12;;;;;;;13.20;61.93;100632.29;1962909;73;21004;-44
2023/03/10 11:36:46;;;;;;;8.18;2.67;;;;;;;13.28;61.68;100634.56;1963090;72;21036;-45
2023/03/10 11:39:30;;;;;;;4.37;2.27;;;;;;;13.30;61.54;100626.08;1978802;72;21124;-44
2023/03/10 11:42:04;;;;;;;6.67;3.35;;;;;;;13.34;61.73;100628.98;1962521;72;21499;-46
2023/03/10 11:44:58;;;;;;;6.67;2.77;;;;;;;13.25;62.22;100635.56;1962322;73;21044;-45